createdAt,value
2019-02-15T00:00:49.189Z,3.55
2019-02-15T00:05:55.198Z,4.17
2019-02-15T00:11:01.160Z,3.35
2019-02-15T00:16:06.981Z,3.75
2019-02-15T00:21:18.399Z,4.35
2019-02-15T00:26:24.629Z,5.45
2019-02-15T00:31:29.978Z,3.55
2019-02-15T00:36:35.758Z,6.08
2019-02-15T00:41:42.779Z,3.52
2019-02-15T00:47:19.898Z,5.37
2019-02-15T00:52:42.758Z,4.90
2019-02-15T00:58:05.999Z,4.35
2019-02-15T01:03:29.123Z,5.10
2019-02-15T01:08:59.552Z,4.20
2019-02-15T01:14:05.516Z,5.92
2019-02-15T01:19:11.357Z,4.00
2019-02-15T01:24:17.549Z,7.10
2019-02-15T01:29:42.078Z,3.87
2019-02-15T01:35:00.750Z,4.05
2019-02-15T01:40:28.469Z,4.40
2019-02-15T01:45:46.880Z,5.15
2019-02-15T01:50:52.868Z,7.05
2019-02-15T01:55:58.798Z,4.65
2019-02-15T02:01:04.819Z,4.35
2019-02-15T02:06:10.538Z,4.87
2019-02-15T02:11:16.579Z,4.78
2019-02-15T02:16:23.879Z,4.85
2019-02-15T02:21:29.828Z,5.30
2019-02-15T02:26:35.579Z,4.30
2019-02-15T02:31:41.339Z,4.53
2019-02-15T02:36:54.469Z,4.65
2019-02-15T02:42:00.298Z,5.03
2019-02-15T02:47:06.079Z,5.72
2019-02-15T02:52:11.956Z,4.72
2019-02-15T02:57:17.770Z,5.30
2019-02-15T03:02:23.538Z,4.97
2019-02-15T03:07:29.298Z,4.87
2019-02-15T03:12:35.258Z,4.72
2019-02-15T03:17:40.930Z,3.72
2019-02-15T03:22:46.850Z,3.92
2019-02-15T03:27:52.670Z,4.60
2019-02-15T03:32:58.451Z,3.95
2019-02-15T03:38:20.280Z,5.90
2019-02-15T03:43:25.979Z,4.75
2019-02-15T03:48:31.630Z,6.25
2019-02-15T03:53:37.392Z,4.37
2019-02-15T03:58:43.339Z,5.08
2019-02-15T04:03:49.143Z,5.85
2019-02-15T04:08:55.180Z,4.58
2019-02-15T04:14:00.915Z,4.35
2019-02-15T04:19:06.663Z,4.28
2019-02-15T04:24:13.598Z,3.60
2019-02-15T04:29:19.450Z,4.95
2019-02-15T04:34:26.119Z,4.62
2019-02-15T04:39:31.796Z,4.03
2019-02-15T04:44:42.776Z,3.90
2019-02-15T04:49:44.820Z,4.92
2019-02-15T04:54:51.038Z,4.40
2019-02-15T04:59:56.803Z,4.75
2019-02-15T05:05:02.477Z,5.70
2019-02-15T05:10:08.389Z,5.50
2019-02-15T05:15:14.198Z,4.92
2019-02-15T05:20:19.970Z,5.17
2019-02-15T05:25:25.818Z,4.33
2019-02-15T05:30:31.591Z,4.33
2019-02-15T05:35:37.474Z,4.12
2019-02-15T05:40:43.248Z,4.00
2019-02-15T05:45:49.217Z,4.60
2019-02-15T05:50:55.129Z,3.90
2019-02-15T05:56:01.004Z,4.55
2019-02-15T06:01:06.958Z,4.47
2019-02-15T06:06:12.878Z,3.92
2019-02-15T06:11:18.655Z,4.45
2019-02-15T06:16:24.459Z,4.10
2019-02-15T06:21:30.418Z,4.55
2019-02-15T06:26:36.409Z,4.72
2019-02-15T06:31:42.288Z,4.60
2019-02-15T06:36:48.238Z,4.92
2019-02-15T06:41:54.028Z,5.47
2019-02-15T06:47:00.148Z,4.60
2019-02-15T06:52:05.910Z,4.25
2019-02-15T06:57:11.788Z,4.20
2019-02-15T07:02:30.602Z,4.12
2019-02-15T07:07:36.349Z,3.90
2019-02-15T07:12:42.203Z,4.15
2019-02-15T07:17:48.095Z,4.65
2019-02-15T07:22:54.389Z,5.20
2019-02-15T07:28:00.309Z,7.62
2019-02-15T07:33:06.099Z,5.65
2019-02-15T07:38:13.028Z,3.95
2019-02-15T07:43:18.758Z,5.72
2019-02-15T07:48:24.678Z,4.85
2019-02-15T07:53:30.420Z,8.73
2019-02-15T07:58:36.417Z,8.00
2019-02-15T08:03:42.379Z,4.12
2019-02-15T08:08:48.289Z,7.00
2019-02-15T08:13:54.011Z,6.42
2019-02-15T08:19:00.598Z,9.03
2019-02-15T08:24:06.562Z,7.00
2019-02-15T08:29:12.318Z,7.42
2019-02-15T08:34:17.978Z,8.40
2019-02-15T08:39:23.828Z,5.22
2019-02-15T08:44:29.648Z,6.00
2019-02-15T08:49:35.329Z,6.60
2019-02-15T08:54:41.153Z,5.05
2019-02-15T08:59:46.909Z,5.35
2019-02-15T09:04:52.778Z,4.35
2019-02-15T09:09:58.760Z,4.72
2019-02-15T09:15:04.538Z,5.17
2019-02-15T09:20:11.617Z,6.17
2019-02-15T09:25:17.389Z,3.60
2019-02-15T09:30:23.109Z,5.47
2019-02-15T09:35:28.691Z,8.85
2019-02-15T09:40:34.319Z,4.22
2019-02-15T09:45:40.289Z,5.12
2019-02-15T09:50:47.630Z,5.80
2019-02-15T09:55:53.718Z,4.15
2019-02-15T10:00:59.638Z,7.00
2019-02-15T10:06:05.519Z,5.10
2019-02-15T10:11:11.318Z,4.65
2019-02-15T10:16:17.128Z,4.47
2019-02-15T10:21:22.828Z,5.55
2019-02-15T10:26:28.629Z,4.33
2019-02-15T10:31:34.348Z,12.58
2019-02-15T10:36:40.000Z,9.68
2019-02-15T10:41:45.688Z,10.20
2019-02-15T10:46:51.539Z,10.40
2019-02-15T10:51:57.390Z,6.25
2019-02-15T10:57:03.247Z,15.65
2019-02-15T11:02:09.208Z,26.30
2019-02-15T11:07:15.128Z,24.40
2019-02-15T11:12:21.720Z,31.30
2019-02-15T11:17:27.638Z,32.00
2019-02-15T11:22:33.440Z,24.98
2019-02-15T11:27:39.219Z,20.55
2019-02-15T11:32:45.049Z,26.02
2019-02-15T11:37:51.379Z,20.68
2019-02-15T11:42:57.220Z,15.00
2019-02-15T11:48:02.818Z,12.33
2019-02-15T11:53:08.774Z,21.52
2019-02-15T11:58:14.537Z,17.50
2019-02-15T12:03:20.329Z,20.43
2019-02-15T12:08:26.225Z,15.08
2019-02-15T12:13:32.009Z,17.57
2019-02-15T12:18:39.059Z,16.80
2019-02-15T12:23:44.989Z,10.25
2019-02-15T12:28:50.693Z,18.90
2019-02-15T12:33:56.488Z,16.17
2019-02-15T12:39:02.457Z,8.83
2019-02-15T12:44:08.199Z,11.18
2019-02-15T12:49:14.019Z,9.88
2019-02-15T12:54:19.818Z,9.65
2019-02-15T12:59:25.580Z,11.43
2019-02-15T13:04:31.408Z,12.65
2019-02-15T13:09:37.118Z,19.37
2019-02-15T13:14:43.089Z,10.90
2019-02-15T13:19:48.372Z,11.35
2019-02-15T13:24:54.133Z,9.90
2019-02-15T13:30:00.518Z,13.90
2019-02-15T13:35:07.024Z,12.80
2019-02-15T13:40:13.339Z,17.98
2019-02-15T13:45:19.066Z,21.68
2019-02-15T13:50:25.188Z,18.10
2019-02-15T13:55:31.359Z,24.20
2019-02-15T14:00:37.288Z,16.90
2019-02-15T14:06:01.975Z,18.75
2019-02-15T14:11:07.947Z,16.30
2019-02-15T14:16:13.739Z,14.63
2019-02-15T14:21:19.558Z,13.45
2019-02-15T14:26:25.438Z,10.25
2019-02-15T14:31:50.310Z,15.98
2019-02-15T14:36:56.053Z,14.65
2019-02-15T14:42:01.827Z,12.55
2019-02-15T14:47:07.678Z,13.62
2019-02-15T14:52:13.488Z,7.72
2019-02-15T14:57:19.071Z,12.20
2019-02-15T15:02:24.607Z,12.10
2019-02-15T15:07:30.084Z,18.77
2019-02-15T15:12:35.919Z,10.53
2019-02-15T15:17:41.898Z,9.73
2019-02-15T15:22:48.054Z,14.03
2019-02-15T15:27:54.072Z,11.33
2019-02-15T15:33:01.420Z,11.80
2019-02-15T15:38:07.329Z,7.53
2019-02-15T15:43:13.460Z,11.18
2019-02-15T15:48:22.746Z,18.32
2019-02-15T15:53:26.821Z,14.98
2019-02-15T15:58:32.870Z,9.78
2019-02-15T16:03:38.877Z,10.25
2019-02-15T16:08:44.859Z,10.75
2019-02-15T16:13:50.491Z,10.48
2019-02-15T16:18:57.560Z,14.33
2019-02-15T16:24:12.114Z,6.53
2019-02-15T16:29:10.508Z,10.05
2019-02-15T16:34:17.898Z,10.00
2019-02-15T16:39:23.917Z,13.80
2019-02-15T16:44:29.779Z,6.30
2019-02-15T16:49:35.518Z,4.87
2019-02-15T16:54:41.338Z,7.95
2019-02-15T16:59:47.222Z,11.40
2019-02-15T17:04:52.961Z,7.08
2019-02-15T17:09:58.714Z,7.25
2019-02-15T17:15:04.508Z,4.50
2019-02-15T17:20:10.540Z,7.53
2019-02-15T17:25:16.359Z,6.75
2019-02-15T17:30:22.068Z,8.13
2019-02-15T17:35:27.908Z,5.10
2019-02-15T17:40:34.928Z,3.77
2019-02-15T17:45:40.818Z,5.20
2019-02-15T17:50:46.836Z,7.10
2019-02-15T17:55:52.619Z,11.63
2019-02-15T18:00:58.772Z,7.67
2019-02-15T18:06:04.888Z,9.73
2019-02-15T18:11:10.722Z,12.13
2019-02-15T18:16:16.549Z,7.83
2019-02-15T18:21:22.858Z,12.37
2019-02-15T18:26:28.698Z,9.50
2019-02-15T18:31:34.589Z,9.13
2019-02-15T18:36:40.259Z,10.43
2019-02-15T18:41:46.089Z,10.28
2019-02-15T18:46:51.767Z,8.85
2019-02-15T18:51:57.799Z,14.63
2019-02-15T18:57:03.428Z,9.43
2019-02-15T19:02:08.990Z,9.35
2019-02-15T19:07:14.838Z,13.53
2019-02-15T19:12:20.588Z,16.37
2019-02-15T19:17:26.629Z,11.15
2019-02-15T19:22:32.548Z,9.50
2019-02-15T19:27:38.468Z,8.38
2019-02-15T19:32:44.369Z,14.43
2019-02-15T19:37:50.329Z,13.98
2019-02-15T19:42:56.608Z,8.35
2019-02-15T19:48:02.596Z,13.93
2019-02-15T19:53:10.698Z,10.50
2019-02-15T19:58:16.709Z,6.40
2019-02-15T20:03:22.590Z,10.72
2019-02-15T20:08:28.818Z,5.58
2019-02-15T20:13:34.850Z,5.78
2019-02-15T20:18:40.711Z,9.08
2019-02-15T20:23:46.648Z,6.50
2019-02-15T20:28:52.060Z,8.48
2019-02-15T20:33:57.582Z,6.00
2019-02-15T20:39:05.938Z,6.67
2019-02-15T20:44:11.828Z,7.05
2019-02-15T20:49:17.921Z,6.83
2019-02-15T20:54:23.463Z,8.95
2019-02-15T20:59:29.352Z,6.50
2019-02-15T21:04:35.451Z,6.28
2019-02-15T21:09:40.903Z,4.50
2019-02-15T21:14:46.713Z,3.02
2019-02-15T21:19:52.655Z,5.03
2019-02-15T21:24:58.452Z,4.12
2019-02-15T21:30:04.982Z,3.42
2019-02-15T21:35:10.882Z,3.98
2019-02-15T21:40:17.054Z,3.42
2019-02-15T21:45:23.503Z,5.22
2019-02-15T21:50:35.176Z,4.70
2019-02-15T21:55:41.493Z,4.95
2019-02-15T22:00:47.251Z,4.80
2019-02-15T22:05:53.750Z,5.15
2019-02-15T22:10:59.339Z,5.83
2019-02-15T22:16:06.895Z,4.22
2019-02-15T22:21:12.947Z,6.42
2019-02-15T22:26:18.990Z,5.55
2019-02-15T22:31:25.270Z,4.10
2019-02-15T22:36:32.496Z,4.35
2019-02-15T22:41:39.050Z,3.75
2019-02-15T22:46:44.929Z,3.58
2019-02-15T22:51:50.884Z,3.50
2019-02-15T22:56:56.920Z,2.45
2019-02-15T23:02:03.020Z,5.00
2019-02-15T23:07:09.408Z,4.12
2019-02-15T23:12:15.613Z,3.87
2019-02-15T23:17:21.400Z,2.83
2019-02-15T23:22:27.850Z,3.72
2019-02-15T23:27:34.395Z,3.20
2019-02-15T23:32:40.259Z,2.70
2019-02-15T23:37:46.557Z,4.00
2019-02-15T23:42:52.664Z,2.85
2019-02-15T23:47:58.244Z,3.72
2019-02-15T23:53:03.551Z,3.15
2019-02-15T23:58:09.000Z,2.60
